Time;durP1;ratioP1;P1;durP2;ratioP2;P2;SDS_P1;SDS_P2;PMS_P1;PMS_P2;Temp;Humidity;BMP_temperature;BMP_pressure;BME280_temperature;BME280_humidity;BME280_pressure;Samples;Min_cycle;Max_cycle;Signal;HPM_P1;HPM_P2
2023/01/03 00:01:07;;;;;;;3.43;2.93;;;10.20;1.00;;;;;;4980423;28;20539;-86
2023/01/03 00:03:36;;;;;;;3.93;3.53;;;10.10;1.00;;;;;;4993754;28;21421;-84
2023/01/03 00:06:05;;;;;;;5.50;3.20;;;10.00;1.00;;;;;;4994424;28;21041;-82
2023/01/03 00:08:47;;;;;;;3.17;2.60;;;9.90;1.00;;;;;;4989675;28;20550;-83
2023/01/03 00:15:16;;;;;;;4.33;3.93;;;9.90;1.00;;;;;;4922448;28;20594;-84
2023/01/03 00:18:13;;;;;;;4.20;2.40;;;10.00;1.00;;;;;;4913008;28;20476;-81
2023/01/03 00:20:52;;;;;;;6.63;2.83;;;10.00;1.00;;;;;;4994681;28;20922;-84
2023/01/03 00:23:28;;;;;;;3.50;2.30;;;10.10;1.00;;;;;;4988906;28;20486;-84
2023/01/03 00:25:56;;;;;;;2.83;2.53;;;10.00;1.00;;;;;;4987351;28;21321;-84
2023/01/03 00:28:26;;;;;;;4.50;2.87;;;10.00;1.00;;;;;;4988283;28;20607;-84
2023/01/03 00:30:56;;;;;;;3.87;2.53;;;10.10;1.00;;;;;;4992685;28;20467;-84
2023/01/03 00:33:25;;;;;;;5.40;2.77;;;10.10;1.00;;;;;;4992715;28;20558;-84
2023/01/03 00:36:03;;;;;;;5.70;4.43;;;10.10;1.00;;;;;;4998271;28;20416;-84
2023/01/03 00:38:30;;;;;;;5.60;4.93;;;10.10;1.00;;;;;;4987968;28;20435;-83
2023/01/03 00:41:05;;;;;;;5.43;4.93;;;10.10;1.00;;;;;;4991133;28;20464;-83
2023/01/03 00:43:34;;;;;;;6.40;4.83;;;10.10;1.00;;;;;;4990653;28;20438;-82
2023/01/03 00:46:04;;;;;;;5.73;5.23;;;10.10;1.00;;;;;;4992597;28;20562;-83
2023/01/03 00:48:32;;;;;;;6.00;5.50;;;10.10;1.00;;;;;;4990818;28;20456;-84
2023/01/03 00:51:06;;;;;;;9.00;5.43;;;10.10;1.00;;;;;;4986138;28;20490;-83
2023/01/03 00:53:34;;;;;;;4.73;4.27;;;10.00;1.00;;;;;;4989233;28;20514;-85
2023/01/03 00:56:07;;;;;;;4.73;4.13;;;10.10;1.00;;;;;;4981848;28;20489;-85
2023/01/03 00:58:35;;;;;;;5.10;3.17;;;10.10;1.00;;;;;;4986371;28;20868;-83
2023/01/03 01:01:06;;;;;;;3.80;3.33;;;10.10;1.00;;;;;;4992367;28;21042;-84
2023/01/03 01:03:33;;;;;;;3.07;2.73;;;10.10;1.00;;;;;;4992349;28;21222;-84
2023/01/03 01:06:11;;;;;;;4.07;2.47;;;10.10;1.00;;;;;;4982633;28;20522;-82
2023/01/03 01:08:45;;;;;;;3.80;2.80;;;10.00;1.00;;;;;;4990024;28;20487;-82
2023/01/03 01:11:15;;;;;;;3.30;3.00;;;9.90;1.00;;;;;;4982723;28;20464;-83
2023/01/03 01:13:46;;;;;;;2.97;2.63;;;9.80;1.00;;;;;;4988570;28;21604;-84
2023/01/03 01:16:23;;;;;;;3.63;2.97;;;9.70;1.00;;;;;;4993120;28;20482;-83
2023/01/03 01:18:54;;;;;;;4.07;2.53;;;9.60;1.00;;;;;;4998934;28;20433;-83
2023/01/03 01:21:30;;;;;;;3.97;2.90;;;9.60;1.00;;;;;;4985331;28;20896;-83
2023/01/03 01:24:05;;;;;;;4.80;3.13;;;9.50;1.00;;;;;;4982814;28;20516;-83
2023/01/03 01:26:32;;;;;;;3.07;2.80;;;9.50;1.00;;;;;;4995447;28;20454;-87
2023/01/03 01:28:59;;;;;;;2.23;2.03;;;9.50;1.00;;;;;;4994340;28;22229;-87
2023/01/03 01:34:17;;;;;;;3.83;2.33;;;9.40;1.00;;;;;;4984967;28;20987;-87
2023/01/03 01:36:47;;;;;;;4.43;2.90;;;9.40;1.00;;;;;;4993689;28;20562;-87
2023/01/03 01:39:20;;;;;;;5.43;2.33;;;9.40;1.00;;;;;;4992239;28;20478;-86
2023/01/03 01:44:59;;;;;;;3.30;2.30;;;9.30;1.00;;;;;;4990501;28;20469;-86
2023/01/03 01:47:44;;;;;;;3.07;1.93;;;9.20;1.00;;;;;;4979308;28;20468;-82
2023/01/03 01:50:23;;;;;;;4.20;2.30;;;9.10;1.00;;;;;;4995197;28;20419;-83
2023/01/03 01:53:00;;;;;;;2.70;2.07;;;9.10;1.00;;;;;;4996068;28;20451;-83
2023/01/03 01:55:33;;;;;;;2.97;2.40;;;9.10;1.00;;;;;;4990152;28;20470;-82
2023/01/03 01:58:01;;;;;;;4.90;1.90;;;9.00;1.00;;;;;;4991380;28;20458;-81
2023/01/03 02:00:36;;;;;;;2.47;1.70;;;9.00;1.00;;;;;;5000066;28;20529;-82
2023/01/03 02:03:05;;;;;;;2.90;1.97;;;9.00;1.00;;;;;;4998205;28;20428;-85
2023/01/03 02:05:38;;;;;;;3.40;1.80;;;9.00;1.00;;;;;;5003189;28;20883;-87
2023/01/03 02:08:07;;;;;;;1.60;1.50;;;8.90;1.00;;;;;;5004794;28;20997;-85
2023/01/03 02:10:55;;;;;;;3.63;1.70;;;8.90;1.00;;;;;;4990494;28;20432;-88
2023/01/03 02:16:54;;;;;;;4.07;1.50;;;8.90;1.00;;;;;;4996758;28;21800;-85
2023/01/03 02:20:03;;;;;;;1.60;1.50;;;8.90;1.00;;;;;;4989480;28;20466;-85
2023/01/03 02:23:07;;;;;;;3.83;2.17;;;8.90;1.00;;;;;;5003801;28;20231;-85
2023/01/03 02:26:16;;;;;;;2.17;1.97;;;8.90;1.00;;;;;;4995953;28;20420;-84
2023/01/03 02:29:22;;;;;;;4.43;1.60;;;8.90;1.00;;;;;;4997538;28;21076;-91
2023/01/03 02:32:04;;;;;;;3.85;1.95;;;8.90;1.00;;;;;;5003449;28;20505;-89
2023/01/03 02:34:44;;;;;;;2.23;1.80;;;8.80;1.00;;;;;;5001708;28;20234;-90
2023/01/03 02:37:35;;;;;;;4.00;2.30;;;8.80;1.00;;;;;;4998354;28;20436;-88
2023/01/03 02:40:24;;;;;;;2.83;1.97;;;8.70;1.00;;;;;;5005967;28;20447;-85
2023/01/03 02:43:07;;;;;;;5.57;1.87;;;8.60;1.00;;;;;;4983555;28;20434;-84
2023/01/03 02:49:05;;;;;;;4.00;1.80;;;8.50;1.00;;;;;;5000953;28;20462;-85
2023/01/03 02:51:43;;;;;;;2.60;1.77;;;8.40;1.00;;;;;;5006488;28;20537;-91
2023/01/03 02:54:35;;;;;;;3.90;1.98;;;8.30;1.00;;;;;;4992297;28;20494;-90
2023/01/03 02:57:13;;;;;;;1.70;1.45;;;8.20;1.00;;;;;;5004621;28;20284;-89
2023/01/03 02:59:54;;;;;;;2.33;2.13;;;8.20;1.00;;;;;;4999426;28;20224;-90
2023/01/03 03:02:36;;;;;;;3.20;2.25;;;8.10;1.00;;;;;;5004908;28;20452;-91
2023/01/03 03:05:23;;;;;;;2.58;1.90;;;8.10;1.00;;;;;;4992397;28;20237;-90
2023/01/03 03:07:56;;;;;;;4.00;2.20;;;8.10;1.00;;;;;;4998605;28;20244;-84
2023/01/03 03:13:47;;;;;;;1.83;1.70;;;8.00;1.00;;;;;;5002421;28;20220;-83
2023/01/03 03:16:46;;;;;;;3.08;1.70;;;7.90;1.00;;;;;;4998534;28;20231;-83
2023/01/03 03:25:22;;;;;;;5.75;2.15;;;7.70;1.00;;;;;;4989072;28;20726;-82
2023/01/03 03:30:45;;;;;;;4.93;2.28;;;7.70;1.00;;;;;;5009211;28;20228;-88
2023/01/03 03:33:18;;;;;;;4.90;1.90;;;7.70;1.00;;;;;;5009405;28;20243;-85
2023/01/03 03:35:57;;;;;;;6.30;2.95;;;7.60;1.00;;;;;;4997910;28;20238;-86
2023/01/03 03:38:38;;;;;;;2.53;2.10;;;7.50;1.00;;;;;;5003723;28;21111;-83
2023/01/03 03:47:17;;;;;;;3.67;2.08;;;7.50;1.00;;;;;;4994041;28;20301;-85
2023/01/03 03:49:53;;;;;;;7.00;3.05;;;7.40;1.00;;;;;;5000148;28;20252;-83
2023/01/03 03:52:25;;;;;;;2.45;2.13;;;7.40;1.00;;;;;;4984846;28;21296;-87
2023/01/03 03:55:00;;;;;;;3.63;2.17;;;7.40;1.00;;;;;;4985407;28;20291;-89
2023/01/03 03:57:37;;;;;;;3.58;2.35;;;7.40;1.00;;;;;;4990561;28;20264;-82
2023/01/03 04:00:11;;;;;;;3.50;2.22;;;7.40;1.00;;;;;;4994304;28;20268;-91
2023/01/03 04:02:41;;;;;;;4.32;2.20;;;7.30;1.00;;;;;;4988913;28;20270;-82
2023/01/03 04:05:11;;;;;;;4.47;2.00;;;7.30;1.00;;;;;;4993165;28;20254;-83
2023/01/03 04:07:38;;;;;;;4.15;2.65;;;7.30;1.00;;;;;;4989393;28;21114;-84
2023/01/03 04:10:18;;;;;;;9.77;2.88;;;7.20;1.00;;;;;;4998019;28;20265;-83
2023/01/03 04:12:46;;;;;;;4.72;2.28;;;7.20;1.00;;;;;;4993132;28;20242;-80
2023/01/03 04:15:16;;;;;;;3.25;2.30;;;7.30;1.00;;;;;;4995912;28;20208;-90
2023/01/03 04:18:08;;;;;;;5.63;2.42;;;7.30;1.00;;;;;;4988980;28;20240;-91
2023/01/03 04:20:35;;;;;;;3.53;2.20;;;7.20;1.00;;;;;;4973758;28;20268;-85
2023/01/03 04:23:07;;;;;;;5.60;2.35;;;7.20;1.00;;;;;;4993338;28;20270;-87
2023/01/03 04:25:39;;;;;;;2.83;2.35;;;7.20;1.00;;;;;;4996316;28;20242;-82
2023/01/03 04:28:06;;;;;;;3.65;2.70;;;7.20;1.00;;;;;;4987733;28;20271;-85
2023/01/03 04:30:36;;;;;;;5.65;3.10;;;7.10;1.00;;;;;;4977546;28;20294;-82
2023/01/03 04:33:06;;;;;;;3.20;2.15;;;7.10;1.00;;;;;;4996428;28;20249;-90
2023/01/03 04:35:36;;;;;;;4.70;2.45;;;7.10;1.00;;;;;;4989982;28;20234;-83
2023/01/03 04:38:06;;;;;;;4.68;2.28;;;7.10;1.00;;;;;;4999023;28;20255;-83
2023/01/03 04:40:46;;;;;;;3.30;3.00;;;7.00;1.00;;;;;;4998837;28;20269;-83
2023/01/03 04:46:15;;;;;;;3.08;2.53;;;7.00;1.00;;;;;;4984649;28;20789;-83
2023/01/03 04:48:45;;;;;;;4.47;2.25;;;6.90;1.00;;;;;;4975545;28;20732;-85
2023/01/03 04:51:15;;;;;;;4.03;2.70;;;6.90;1.00;;;;;;4972824;28;20248;-86
2023/01/03 04:53:42;;;;;;;5.20;2.80;;;6.90;1.00;;;;;;4998038;28;20232;-87
2023/01/03 04:56:25;;;;;;;5.10;3.10;;;6.90;1.00;;;;;;4998496;28;20715;-86
2023/01/03 04:59:06;;;;;;;6.80;3.13;;;6.80;1.00;;;;;;4990577;28;20261;-85
2023/01/03 05:01:50;;;;;;;5.53;2.20;;;6.80;1.00;;;;;;4991809;28;20229;-85
2023/01/03 05:04:17;;;;;;;7.05;3.17;;;6.80;1.00;;;;;;4971750;28;20336;-83
2023/01/03 05:06:47;;;;;;;5.50;2.47;;;6.80;1.00;;;;;;4978026;28;20227;-82
2023/01/03 05:09:15;;;;;;;7.18;2.90;;;6.80;1.00;;;;;;4978792;28;20246;-86
2023/01/03 05:11:46;;;;;;;6.05;3.03;;;6.80;1.00;;;;;;4981087;28;20304;-82
2023/01/03 05:14:17;;;;;;;5.72;3.65;;;6.80;1.00;;;;;;4967304;28;20300;-82
2023/01/03 05:16:47;;;;;;;7.53;3.28;;;6.70;1.00;;;;;;4983996;28;20225;-86
2023/01/03 05:19:18;;;;;;;10.68;2.90;;;6.70;1.00;;;;;;4977114;28;20239;-82
2023/01/03 05:27:21;;;;;;;5.22;3.30;;;6.70;1.00;;;;;;4947249;28;21055;-86
2023/01/03 05:29:58;;;;;;;6.05;3.60;;;6.70;1.00;;;;;;4989339;28;20273;-85
2023/01/03 05:32:36;;;;;;;4.00;3.17;;;6.70;1.00;;;;;;4970125;28;22897;-91
2023/01/03 05:35:38;;;;;;;;;;;;;;;;;;;;;
2023/01/03 05:38:18;;;;;;;3.55;3.25;;;6.70;1.00;;;;;;4966102;28;51482;-90
2023/01/03 05:40:48;;;;;;;4.25;3.78;;;6.70;1.00;;;;;;4990522;28;20239;-88
2023/01/03 05:43:37;;;;;;;8.55;3.72;;;6.60;1.00;;;;;;4976209;28;20300;-87
2023/01/03 05:46:44;;;;;;;4.75;3.40;;;6.60;1.00;;;;;;4988724;28;20842;-87
2023/01/03 05:52:14;;;;;;;7.47;3.45;;;6.50;1.00;;;;;;4988536;28;20735;-89
2023/01/03 05:57:38;;;;;;;6.90;4.30;;;6.50;1.00;;;;;;4988728;28;20295;-86
2023/01/03 06:00:17;;;;;;;5.43;3.28;;;6.50;1.00;;;;;;4996846;28;20235;-87
2023/01/03 06:02:47;;;;;;;6.85;3.28;;;6.40;1.00;;;;;;4987878;28;20231;-89
2023/01/03 06:05:18;;;;;;;5.82;3.45;;;6.40;1.00;;;;;;4986924;28;20237;-88
2023/01/03 06:07:47;;;;;;;7.15;2.90;;;6.40;1.00;;;;;;4985561;28;20410;-87
2023/01/03 06:10:26;;;;;;;4.78;3.03;;;6.40;1.00;;;;;;4985947;28;20234;-88
2023/01/03 06:12:58;;;;;;;4.75;3.10;;;6.40;1.00;;;;;;4986502;28;20246;-87
2023/01/03 06:15:38;;;;;;;6.45;2.90;;;6.40;1.00;;;;;;4979658;28;20305;-89
2023/01/03 06:18:15;;;;;;;6.60;3.25;;;6.40;1.00;;;;;;5002547;28;20255;-89
2023/01/03 06:20:58;;;;;;;5.75;3.47;;;6.30;1.00;;;;;;4994268;28;20254;-87
2023/01/03 06:29:47;;;;;;;6.25;3.13;;;6.30;1.00;;;;;;5000973;28;20270;-91
2023/01/03 06:32:48;;;;;;;6.05;3.40;;;6.30;1.00;;;;;;4987581;28;20239;-85
2023/01/03 06:38:07;;;;;;;5.55;4.25;;;6.20;1.00;;;;;;5005012;28;21190;-88
2023/01/03 06:40:55;;;;;;;7.22;3.55;;;6.20;1.00;;;;;;5002012;28;20341;-86
2023/01/03 06:43:46;;;;;;;5.40;3.55;;;6.30;1.00;;;;;;4988713;28;20272;-88
2023/01/03 06:55:17;;;;;;;17.08;8.48;;;6.20;1.00;;;;;;4991033;28;20231;-87
2023/01/03 06:57:48;;;;;;;3.20;2.88;;;6.20;1.00;;;;;;4989870;28;20414;-91
2023/01/03 07:00:48;;;;;;;8.45;4.15;;;6.20;1.00;;;;;;4949283;28;20233;-83
2023/01/03 07:03:38;;;;;;;;;;;;;;;;;;;;;
2023/01/03 07:08:58;;;;;;;4.35;3.95;;;6.10;1.00;;;;;;4968052;28;20276;-84
2023/01/03 07:11:46;;;;;;;5.85;5.15;;;6.10;1.00;;;;;;4974911;28;20220;-83
2023/01/03 07:14:17;;;;;;;5.95;4.40;;;6.00;1.00;;;;;;4976127;28;20228;-85
2023/01/03 07:16:49;;;;;;;10.93;4.25;;;6.00;1.00;;;;;;4979315;28;20264;-83
2023/01/03 07:22:28;;;;;;;;;;;;;;;;;;;;;
2023/01/03 07:24:59;;;;;;;9.20;4.90;;;6.00;1.00;;;;;;4951434;28;51808;-84
2023/01/03 07:27:39;;;;;;;5.20;4.25;;;6.00;1.00;;;;;;4958744;28;20233;-85
2023/01/03 07:30:17;;;;;;;6.50;4.68;;;5.90;1.00;;;;;;4981746;28;21025;-83
2023/01/03 07:32:59;;;;;;;5.25;4.25;;;5.90;1.00;;;;;;4959552;28;20240;-82
2023/01/03 07:35:38;;;;;;;7.82;4.60;;;5.90;1.00;;;;;;4949598;28;20249;-81
2023/01/03 07:38:08;;;;;;;6.00;3.97;;;6.00;1.00;;;;;;4966343;28;20224;-84
2023/01/03 07:40:59;;;;;;;6.38;4.70;;;6.00;1.00;;;;;;4960752;28;20296;-84
2023/01/03 07:43:37;;;;;;;8.65;6.05;;;6.00;1.00;;;;;;4952076;28;20328;-82
2023/01/03 07:46:39;;;;;;;;;;;;;;;;;;;;;
2023/01/03 07:49:50;;;;;;;;;;;;;;;;;;;;;
2023/01/03 07:52:21;;;;;;;5.32;4.65;;;6.00;1.00;;;;;;4931546;28;49231;-81
2023/01/03 07:54:53;;;;;;;8.15;5.15;;;6.10;1.00;;;;;;4966302;28;20244;-82
2023/01/03 07:57:20;;;;;;;9.30;5.15;;;6.10;1.00;;;;;;4972870;28;20240;-82
2023/01/03 07:59:47;;;;;;;11.38;6.38;;;6.10;1.00;;;;;;4992615;28;20326;-81
2023/01/03 08:02:21;;;;;;;10.88;7.53;;;6.10;1.00;;;;;;4976532;28;20244;-81
2023/01/03 08:04:48;;;;;;;6.18;4.80;;;6.10;1.00;;;;;;4979527;28;20821;-82
2023/01/03 08:07:17;;;;;;;5.97;4.32;;;6.20;1.00;;;;;;4991707;28;20283;-82
2023/01/03 08:15:25;;;;;;;7.03;4.50;;;6.20;1.00;;;;;;4966923;28;20337;-84
2023/01/03 08:17:58;;;;;;;7.28;3.90;;;6.20;1.00;;;;;;4981389;28;20243;-84
2023/01/03 08:20:28;;;;;;;6.35;4.95;;;6.30;1.00;;;;;;4968385;28;20545;-88
2023/01/03 08:23:09;;;;;;;7.70;4.38;;;6.40;1.00;;;;;;4980477;28;20232;-85
2023/01/03 08:25:37;;;;;;;24.25;12.10;;;6.50;1.00;;;;;;4976209;28;20256;-85
2023/01/03 08:28:10;;;;;;;8.25;5.47;;;6.90;1.00;;;;;;4978921;28;20250;-81
2023/01/03 08:30:40;;;;;;;8.35;5.20;;;7.10;1.00;;;;;;4995247;28;20262;-81
2023/01/03 08:33:10;;;;;;;14.10;6.25;;;7.20;1.00;;;;;;4993332;28;20345;-83
2023/01/03 08:35:41;;;;;;;8.50;5.40;;;7.20;1.00;;;;;;4995353;28;20272;-82
2023/01/03 08:38:16;;;;;;;5.53;4.63;;;7.30;1.00;;;;;;4992423;28;20321;-81
2023/01/03 08:40:46;;;;;;;10.63;4.40;;;7.40;1.00;;;;;;4991831;28;20234;-82
2023/01/03 08:43:18;;;;;;;7.95;4.85;;;7.50;1.00;;;;;;4978952;28;21071;-82
2023/01/03 08:45:47;;;;;;;9.65;4.90;;;7.60;1.00;;;;;;4988896;28;20322;-82
2023/01/03 08:48:19;;;;;;;6.63;3.92;;;7.60;1.00;;;;;;4993093;28;20247;-82
2023/01/03 08:50:57;;;;;;;11.45;5.75;;;7.60;1.00;;;;;;4992144;28;20228;-82
2023/01/03 08:53:27;;;;;;;3.90;3.45;;;7.60;1.00;;;;;;4968865;28;20244;-83
2023/01/03 08:55:59;;;;;;;8.23;4.10;;;7.50;1.00;;;;;;4989472;28;20231;-85
2023/01/03 08:58:27;;;;;;;5.03;3.78;;;7.50;1.00;;;;;;4972887;28;20284;-83
2023/01/03 09:01:08;;;;;;;7.00;3.45;;;7.30;1.00;;;;;;4990247;28;20428;-84
2023/01/03 09:03:35;;;;;;;6.50;4.65;;;7.40;1.00;;;;;;4985143;28;20237;-84
2023/01/03 09:06:05;;;;;;;5.85;3.85;;;7.40;1.00;;;;;;4979713;28;20253;-82
2023/01/03 09:08:34;;;;;;;5.05;4.10;;;7.30;1.00;;;;;;4970206;28;20259;-82
2023/01/03 09:11:10;;;;;;;3.90;3.33;;;7.30;1.00;;;;;;4992496;28;20854;-83
2023/01/03 09:13:47;;;;;;;6.47;3.80;;;7.40;1.00;;;;;;4969179;28;20235;-81
2023/01/03 09:16:17;;;;;;;6.35;3.83;;;7.40;1.00;;;;;;4962640;28;20289;-84
2023/01/03 09:18:47;;;;;;;8.60;4.10;;;7.60;1.00;;;;;;4987558;28;20307;-84
2023/01/03 09:21:17;;;;;;;6.15;3.67;;;7.70;1.00;;;;;;4958232;28;20236;-82
2023/01/03 09:23:47;;;;;;;4.18;3.78;;;7.90;1.00;;;;;;4980293;28;20269;-85
2023/01/03 09:26:17;;;;;;;6.22;3.72;;;8.10;1.00;;;;;;4980151;28;20234;-84
2023/01/03 09:28:48;;;;;;;5.30;3.97;;;8.30;1.00;;;;;;4973566;28;20298;-83
2023/01/03 09:31:19;;;;;;;4.50;3.40;;;8.30;1.00;;;;;;4981761;28;20315;-85
2023/01/03 09:33:49;;;;;;;4.40;3.50;;;8.30;1.00;;;;;;4979441;28;20294;-84
2023/01/03 09:36:19;;;;;;;5.60;4.32;;;8.30;1.00;;;;;;4974836;28;20319;-81
2023/01/03 09:38:46;;;;;;;5.45;4.20;;;8.30;1.00;;;;;;4992249;28;20231;-81
2023/01/03 09:41:19;;;;;;;5.15;3.25;;;8.30;1.00;;;;;;4953619;28;20245;-82
2023/01/03 09:43:50;;;;;;;5.30;3.72;;;8.30;1.00;;;;;;4977502;28;20813;-82
2023/01/03 09:46:21;;;;;;;8.55;4.20;;;8.40;1.00;;;;;;4987083;28;20269;-82
2023/01/03 09:48:50;;;;;;;5.00;4.07;;;8.50;1.00;;;;;;4985313;28;20634;-82
2023/01/03 10:05:47;;;;;;;4.70;2.97;;;9.90;1.00;;;;;;4986385;28;20465;-82
2023/01/03 10:08:28;;;;;;;3.05;2.42;;;10.10;1.00;;;;;;4992845;28;20445;-83
2023/01/03 10:11:06;;;;;;;4.40;2.60;;;10.00;1.00;;;;;;4974733;28;20608;-83
2023/01/03 10:13:52;;;;;;;4.90;2.40;;;9.50;1.00;;;;;;4981029;28;21386;-83
2023/01/03 10:16:40;;;;;;;6.23;3.43;;;9.00;1.00;;;;;;4980247;28;20310;-84
2023/01/03 10:19:49;;;;;;;5.07;3.20;;;8.80;1.00;;;;;;4961948;28;20894;-83
2023/01/03 10:22:27;;;;;;;7.95;3.85;;;8.50;1.00;;;;;;4954112;28;20446;-86
2023/01/03 10:28:28;;;;;;;3.20;2.70;;;8.40;1.00;;;;;;4972683;28;20252;-89
2023/01/03 10:31:40;;;;;;;;;;;;;;;;;;;;;
2023/01/03 10:34:39;;;;;;;4.25;2.92;;;8.10;1.00;;;;;;4969573;28;51462;-85
2023/01/03 10:37:38;;;;;;;6.60;3.20;;;8.20;1.00;;;;;;4969877;28;20996;-84
2023/01/03 10:40:11;;;;;;;3.73;3.20;;;8.30;1.00;;;;;;4968308;28;20246;-85
2023/01/03 10:42:49;;;;;;;5.28;3.28;;;8.40;1.00;;;;;;4973055;28;20434;-87
2023/01/03 10:45:21;;;;;;;6.05;4.10;;;8.30;1.00;;;;;;4959839;28;20392;-86
2023/01/03 10:48:20;;;;;;;6.78;3.95;;;8.30;1.00;;;;;;4976424;28;20239;-85
2023/01/03 10:51:02;;;;;;;;;;;;;;;;;;;;;
2023/01/03 10:53:31;;;;;;;5.55;4.10;;;8.30;1.00;;;;;;4971191;28;40118;-85
2023/01/03 10:56:17;;;;;;;6.72;4.63;;;8.50;1.00;;;;;;4976984;28;20293;-82
2023/01/03 10:59:14;;;;;;;8.70;4.67;;;8.70;1.00;;;;;;4977787;28;20771;-85
2023/01/03 11:02:12;;;;;;;;;;;;;;;;;;;;;
2023/01/03 11:04:40;;;;;;;4.83;4.33;;;11.10;1.00;;;;;;4964270;28;50921;-83
2023/01/03 11:07:18;;;;;;;6.53;5.93;;;11.80;1.00;;;;;;4981683;28;20483;-83
2023/01/03 11:09:58;;;;;;;7.10;5.20;;;11.70;1.00;;;;;;4976483;28;20435;-85
2023/01/03 11:12:50;;;;;;;7.37;4.97;;;11.50;1.00;;;;;;4962711;28;20471;-84
2023/01/03 11:15:27;;;;;;;8.57;6.40;;;11.50;1.00;;;;;;4977654;28;20431;-84
2023/01/03 11:18:07;;;;;;;8.53;4.93;;;11.30;1.00;;;;;;4972352;28;20435;-84
2023/01/03 11:20:50;;;;;;;7.40;5.80;;;11.80;1.00;;;;;;4966850;28;20434;-85
2023/01/03 11:23:36;;;;;;;6.43;5.83;;;12.90;1.00;;;;;;4970901;28;20863;-84
2023/01/03 11:26:13;;;;;;;5.90;5.30;;;13.10;1.00;;;;;;4983857;28;20424;-84
2023/01/03 11:29:54;;;;;;;7.30;5.63;;;12.50;1.00;;;;;;4991294;28;20476;-84
2023/01/03 11:32:41;;;;;;;7.83;5.73;;;12.10;1.00;;;;;;4965974;28;20494;-85
2023/01/03 11:35:28;;;;;;;5.77;5.17;;;12.20;1.00;;;;;;4979581;28;20439;-82
2023/01/03 11:38:10;;;;;;;8.30;5.73;;;12.00;1.00;;;;;;4993753;28;21016;-84
2023/01/03 11:40:52;;;;;;;11.10;5.80;;;11.30;1.00;;;;;;4990322;28;20462;-84
2023/01/03 11:43:39;;;;;;;6.33;5.03;;;10.90;1.00;;;;;;4992376;28;20475;-84
2023/01/03 11:46:19;;;;;;;6.70;5.20;;;10.30;1.00;;;;;;4992845;28;20606;-83
2023/01/03 11:49:19;;;;;;;7.67;4.80;;;9.80;1.00;;;;;;4992252;28;21385;-86
2023/01/03 11:52:11;;;;;;;7.50;4.40;;;9.60;1.00;;;;;;4992384;28;20445;-85
2023/01/03 11:55:14;;;;;;;8.30;4.10;;;9.40;1.00;;;;;;4981273;28;21054;-83
2023/01/03 11:57:53;;;;;;;8.48;5.65;;;9.30;1.00;;;;;;4997466;28;20472;-86
2023/01/03 12:00:30;;;;;;;8.02;4.95;;;9.20;1.00;;;;;;4977467;28;20975;-84
2023/01/03 12:03:17;;;;;;;9.23;5.23;;;9.10;1.00;;;;;;4988282;28;20243;-85
2023/01/03 12:06:08;;;;;;;5.70;5.10;;;9.10;1.00;;;;;;4995629;28;20439;-85
2023/01/03 12:08:58;;;;;;;6.63;5.20;;;9.20;1.00;;;;;;4993027;28;21424;-84
2023/01/03 12:12:09;;;;;;;11.70;6.30;;;9.10;1.00;;;;;;4993131;28;20436;-83
2023/01/03 12:14:41;;;;;;;9.67;5.77;;;9.20;1.00;;;;;;4959546;28;20235;-83
2023/01/03 12:17:16;;;;;;;7.50;4.70;;;9.30;1.00;;;;;;4988215;28;20411;-86
2023/01/03 12:19:51;;;;;;;11.53;7.00;;;9.30;1.00;;;;;;4991091;28;20627;-83
2023/01/03 12:22:31;;;;;;;9.40;5.70;;;9.20;1.00;;;;;;4990565;28;20487;-85
2023/01/03 12:25:38;;;;;;;7.43;5.90;;;9.30;1.00;;;;;;4998955;28;20489;-91
2023/01/03 12:37:57;;;;;;;5.70;5.20;;;9.50;1.00;;;;;;4813292;29;21041;-83
2023/01/03 12:40:33;;;;;;;8.37;4.93;;;9.40;1.00;;;;;;4899692;28;20461;-84
2023/01/03 12:43:10;;;;;;;8.50;5.65;;;9.10;1.00;;;;;;4938545;28;20504;-82
2023/01/03 12:45:53;;;;;;;4.88;4.07;;;9.00;1.00;;;;;;4963780;28;20270;-86
2023/01/03 12:48:53;;;;;;;5.45;4.30;;;8.90;1.00;;;;;;4972735;28;20243;-85
2023/01/03 12:51:29;;;;;;;7.23;4.53;;;9.00;1.00;;;;;;4978121;28;20241;-85
2023/01/03 12:54:37;;;;;;;7.03;4.10;;;10.60;1.00;;;;;;5000269;28;20440;-87
2023/01/03 12:57:48;;;;;;;6.67;3.93;;;13.10;1.00;;;;;;4975584;28;20425;-85
2023/01/03 13:00:51;;;;;;;5.90;4.50;;;15.20;1.00;;;;;;4977297;28;20430;-85
2023/01/03 13:03:31;;;;;;;5.23;4.40;;;16.20;1.00;;;;;;4991986;28;20469;-83
2023/01/03 13:06:30;;;;;;;9.27;6.07;;;15.60;1.00;;;;;;4973218;28;21198;-84
2023/01/03 13:09:19;;;;;;;11.67;8.63;;;14.60;1.00;;;;;;4997742;28;20643;-85
2023/01/03 13:12:00;;;;;;;6.90;4.50;;;14.10;1.00;;;;;;4997872;28;20608;-88
2023/01/03 13:14:59;;;;;;;5.33;4.80;;;13.10;1.00;;;;;;4996724;28;20547;-86
2023/01/03 13:17:33;;;;;;;6.63;4.30;;;12.10;1.00;;;;;;4994996;28;20446;-85
2023/01/03 13:20:38;;;;;;;8.60;5.30;;;11.40;1.00;;;;;;4985930;28;20528;-87
2023/01/03 13:23:38;;;;;;;10.33;7.53;;;11.10;1.00;;;;;;4985160;28;20425;-87
2023/01/03 13:26:23;;;;;;;9.23;7.60;;;10.60;1.00;;;;;;4976561;28;20553;-84
2023/01/03 13:28:52;;;;;;;6.33;4.80;;;10.40;1.00;;;;;;4992031;28;20480;-84
2023/01/03 13:31:41;;;;;;;5.93;4.63;;;10.30;1.00;;;;;;4993494;28;20569;-82
2023/01/03 13:34:31;;;;;;;6.53;4.83;;;10.10;1.00;;;;;;5001587;28;20463;-81
2023/01/03 13:37:22;;;;;;;6.70;5.03;;;9.90;1.00;;;;;;4997816;28;20418;-81
2023/01/03 13:40:19;;;;;;;5.93;4.83;;;9.50;1.00;;;;;;4992974;28;20546;-81
2023/01/03 13:42:47;;;;;;;6.53;4.87;;;9.20;1.00;;;;;;4998296;28;20482;-80
2023/01/03 13:46:00;;;;;;;5.40;4.90;;;9.00;1.00;;;;;;4987555;28;20461;-81
2023/01/03 13:48:39;;;;;;;5.20;4.10;;;8.80;1.00;;;;;;4997874;28;20451;-80
2023/01/03 13:51:39;;;;;;;7.40;5.93;;;8.70;1.00;;;;;;4987723;28;20235;-82
2023/01/03 13:54:39;;;;;;;8.47;6.30;;;8.60;1.00;;;;;;5000719;28;20457;-84
2023/01/03 13:57:32;;;;;;;6.80;6.05;;;8.60;1.00;;;;;;5000210;28;21054;-82
2023/01/03 14:00:02;;;;;;;10.27;6.50;;;8.40;1.00;;;;;;5003416;28;20272;-82
2023/01/03 14:03:20;;;;;;;7.15;5.05;;;8.30;1.00;;;;;;4991869;28;20556;-79
2023/01/03 14:06:22;;;;;;;7.95;6.20;;;8.20;1.00;;;;;;4939241;28;20241;-82
2023/01/03 14:09:25;;;;;;;5.57;4.75;;;8.00;1.00;;;;;;5000388;28;20269;-81
2023/01/03 14:12:21;;;;;;;10.77;5.53;;;8.00;1.00;;;;;;5000679;28;20240;-83
2023/01/03 14:15:08;;;;;;;11.18;7.18;;;8.00;1.00;;;;;;4987783;28;20236;-81
2023/01/03 14:18:11;;;;;;;11.70;8.65;;;8.00;1.00;;;;;;4979965;28;20240;-86
2023/01/03 14:20:49;;;;;;;9.88;5.95;;;8.00;1.00;;;;;;4985675;28;20219;-86
2023/01/03 14:26:19;;;;;;;11.63;5.87;;;8.10;1.00;;;;;;4986109;28;20446;-88
2023/01/03 14:28:59;;;;;;;8.20;5.67;;;8.00;1.00;;;;;;4981767;28;20472;-85
2023/01/03 14:31:31;;;;;;;9.18;6.22;;;8.00;1.00;;;;;;4975397;28;20557;-87
2023/01/03 14:34:29;;;;;;;9.90;5.80;;;7.90;1.00;;;;;;4981867;28;20216;-85
2023/01/03 14:37:02;;;;;;;6.97;5.72;;;7.90;1.00;;;;;;4987225;28;20236;-83
2023/01/03 14:39:38;;;;;;;9.93;5.75;;;7.70;1.00;;;;;;4987177;28;20274;-88
2023/01/03 14:45:22;;;;;;;10.40;5.95;;;7.60;1.00;;;;;;4975884;28;20242;-85
2023/01/03 14:48:03;;;;;;;;;;;;;;;;;;;;;
2023/01/03 14:50:32;;;;;;;8.70;5.47;;;7.50;1.00;;;;;;4974489;28;39582;-87
2023/01/03 14:56:02;;;;;;;9.43;7.00;;;7.40;1.00;;;;;;4980804;28;20707;-85
2023/01/03 14:58:44;;;;;;;8.67;6.17;;;7.40;1.00;;;;;;4970209;28;20962;-84
2023/01/03 15:01:13;;;;;;;9.93;5.30;;;7.30;1.00;;;;;;4970687;28;20529;-82
2023/01/03 15:03:44;;;;;;;7.97;5.40;;;7.30;1.00;;;;;;4997548;28;20303;-85
2023/01/03 15:06:23;;;;;;;7.32;5.95;;;7.20;1.00;;;;;;4992249;28;20336;-83
2023/01/03 15:08:53;;;;;;;11.32;7.18;;;7.20;1.00;;;;;;5003933;28;20253;-88
2023/01/03 15:11:31;;;;;;;9.10;5.82;;;7.20;1.00;;;;;;4986285;28;20241;-85
2023/01/03 15:14:05;;;;;;;21.58;12.07;;;7.10;1.00;;;;;;4995965;28;20264;-84
2023/01/03 15:16:41;;;;;;;10.77;6.47;;;7.10;1.00;;;;;;4977822;28;20986;-81
2023/01/03 15:19:22;;;;;;;7.60;6.85;;;7.00;1.00;;;;;;4985182;28;20244;-85
2023/01/03 15:21:59;;;;;;;10.38;6.40;;;7.10;1.00;;;;;;4994269;28;20241;-86
2023/01/03 15:24:42;;;;;;;9.38;7.30;;;7.00;1.00;;;;;;4978178;28;20436;-86
2023/01/03 15:27:32;;;;;;;8.25;6.25;;;7.00;1.00;;;;;;4981031;28;20240;-84
2023/01/03 15:30:23;;;;;;;10.85;8.35;;;7.00;1.00;;;;;;4980045;28;20256;-82
2023/01/03 15:33:20;;;;;;;10.52;7.22;;;6.90;1.00;;;;;;4975353;28;20251;-85
2023/01/03 15:36:01;;;;;;;12.82;8.00;;;6.90;1.00;;;;;;4982139;28;20704;-84
2023/01/03 15:38:34;;;;;;;13.00;9.23;;;6.90;1.00;;;;;;4969651;28;20280;-86
2023/01/03 15:41:10;;;;;;;13.52;8.95;;;6.90;1.00;;;;;;4989437;28;20310;-83
2023/01/03 15:43:40;;;;;;;11.30;7.75;;;6.90;1.00;;;;;;4982026;28;20240;-82
2023/01/03 15:46:20;;;;;;;9.75;7.85;;;6.80;1.00;;;;;;4976605;28;20251;-82
2023/01/03 15:48:59;;;;;;;14.98;9.75;;;6.80;1.00;;;;;;4988247;28;20240;-83
2023/01/03 15:51:39;;;;;;;14.30;9.32;;;6.70;1.00;;;;;;4972018;28;20317;-82
2023/01/03 15:54:19;;;;;;;10.85;8.10;;;6.70;1.00;;;;;;4986510;28;20244;-83
2023/01/03 15:57:00;;;;;;;18.77;17.05;;;6.70;1.00;;;;;;4992542;28;20231;-87
2023/01/03 15:59:42;;;;;;;13.30;10.32;;;6.70;1.00;;;;;;4971994;28;20225;-88
2023/01/03 16:02:19;;;;;;;18.13;8.88;;;6.70;1.00;;;;;;4977974;28;20359;-85
2023/01/03 16:05:02;;;;;;;9.63;8.63;;;6.60;1.00;;;;;;4979200;28;20263;-84
2023/01/03 16:07:31;;;;;;;11.75;8.80;;;6.60;1.00;;;;;;4972347;28;20298;-82
2023/01/03 16:10:03;;;;;;;11.73;8.75;;;6.50;1.00;;;;;;4975188;28;20236;-82
2023/01/03 16:12:40;;;;;;;14.05;8.80;;;6.40;1.00;;;;;;4971360;28;20244;-84
2023/01/03 16:15:31;;;;;;;14.38;9.15;;;6.40;1.00;;;;;;4977947;28;20240;-86